sensor_id;sensor_type;location;lat;lon;timestamp;pressure;altitude;pressure_sealevel;temperature;humidity
58977;BME280;49334;37.766;-121.890;2023-05-08T00:01:22;99774.47;;;20.06;31.27
58977;BME280;49334;37.766;-121.890;2023-05-08T00:03:51;99782.23;;;20.15;30.74
58977;BME280;49334;37.766;-121.890;2023-05-08T00:06:21;99775.75;;;20.66;30.51
58977;BME280;49334;37.766;-121.890;2023-05-08T00:08:51;99777.50;;;19.54;31.64
58977;BME280;49334;37.766;-121.890;2023-05-08T00:11:20;99777.86;;;21.19;29.95
58977;BME280;49334;37.766;-121.890;2023-05-08T00:13:49;99776.20;;;20.23;30.56
58977;BME280;49334;37.766;-121.890;2023-05-08T00:16:18;99773.88;;;20.78;29.62
58977;BME280;49334;37.766;-121.890;2023-05-08T00:18:47;99768.50;;;21.12;29.64
58977;BME280;49334;37.766;-121.890;2023-05-08T00:21:17;99765.48;;;19.93;30.90
58977;BME280;49334;37.766;-121.890;2023-05-08T00:23:46;99766.59;;;19.39;31.35
58977;BME280;49334;37.766;-121.890;2023-05-08T00:26:15;99767.57;;;19.95;31.32
58977;BME280;49334;37.766;-121.890;2023-05-08T00:28:44;99767.28;;;20.05;31.04
58977;BME280;49334;37.766;-121.890;2023-05-08T00:31:15;99774.09;;;18.43;32.28
58977;BME280;49334;37.766;-121.890;2023-05-08T00:33:43;99764.89;;;20.67;30.65
58977;BME280;49334;37.766;-121.890;2023-05-08T00:36:13;99762.54;;;19.41;31.35
58977;BME280;49334;37.766;-121.890;2023-05-08T00:38:47;99763.17;;;19.48;32.01
58977;BME280;49334;37.766;-121.890;2023-05-08T00:41:16;99758.37;;;19.79;30.90
58977;BME280;49334;37.766;-121.890;2023-05-08T00:43:46;99756.45;;;21.04;29.39
58977;BME280;49334;37.766;-121.890;2023-05-08T00:46:15;99758.01;;;20.52;29.95
58977;BME280;49334;37.766;-121.890;2023-05-08T00:48:46;99758.44;;;20.22;30.29
58977;BME280;49334;37.766;-121.890;2023-05-08T00:51:15;99763.33;;;18.16;33.48
58977;BME280;49334;37.766;-121.890;2023-05-08T00:53:44;99758.37;;;19.21;32.41
58977;BME280;49334;37.766;-121.890;2023-05-08T00:56:14;99758.80;;;18.79;32.60
58977;BME280;49334;37.766;-121.890;2023-05-08T00:58:44;99753.94;;;18.84;33.27
58977;BME280;49334;37.766;-121.890;2023-05-08T01:01:14;99753.37;;;18.79;33.34
58977;BME280;49334;37.766;-121.890;2023-05-08T01:03:43;99751.84;;;19.23;32.74
58977;BME280;49334;37.766;-121.890;2023-05-08T01:06:12;99752.25;;;18.05;33.82
58977;BME280;49334;37.766;-121.890;2023-05-08T01:08:44;99752.58;;;17.56;35.61
58977;BME280;49334;37.766;-121.890;2023-05-08T01:11:20;99757.22;;;17.65;35.50
58977;BME280;49334;37.766;-121.890;2023-05-08T01:13:56;99755.73;;;16.58;37.70
58977;BME280;49334;37.766;-121.890;2023-05-08T01:16:37;99754.17;;;16.48;37.64
58977;BME280;49334;37.766;-121.890;2023-05-08T01:19:26;99759.79;;;16.16;37.90
58977;BME280;49334;37.766;-121.890;2023-05-08T01:22:06;99759.87;;;15.83;38.69
58977;BME280;49334;37.766;-121.890;2023-05-08T01:24:51;99761.53;;;15.29;39.78
58977;BME280;49334;37.766;-121.890;2023-05-08T01:27:48;99764.48;;;15.76;39.19
58977;BME280;49334;37.766;-121.890;2023-05-08T01:31:36;99763.08;;;16.30;38.22
58977;BME280;49334;37.766;-121.890;2023-05-08T01:34:16;99773.19;;;15.54;38.63
58977;BME280;49334;37.766;-121.890;2023-05-08T01:36:53;99770.87;;;16.18;38.09
58977;BME280;49334;37.766;-121.890;2023-05-08T01:39:31;99778.80;;;15.46;38.95
58977;BME280;49334;37.766;-121.890;2023-05-08T01:42:08;99784.54;;;15.02;40.60
58977;BME280;49334;37.766;-121.890;2023-05-08T01:44:46;99781.59;;;15.17;40.24
58977;BME280;49334;37.766;-121.890;2023-05-08T01:47:20;99784.22;;;14.43;40.73
58977;BME280;49334;37.766;-121.890;2023-05-08T01:49:59;99785.83;;;13.96;42.41
58977;BME280;49334;37.766;-121.890;2023-05-08T01:52:37;99788.02;;;14.67;41.45
58977;BME280;49334;37.766;-121.890;2023-05-08T01:55:13;99785.47;;;15.13;39.64
58977;BME280;49334;37.766;-121.890;2023-05-08T01:57:48;99787.36;;;14.32;41.39
58977;BME280;49334;37.766;-121.890;2023-05-08T02:00:22;99790.52;;;14.11;41.32
58977;BME280;49334;37.766;-121.890;2023-05-08T02:02:54;99788.31;;;13.88;42.35
58977;BME280;49334;37.766;-121.890;2023-05-08T02:05:25;99789.67;;;13.76;42.11
58977;BME280;49334;37.766;-121.890;2023-05-08T02:07:55;99785.15;;;14.08;42.07
58977;BME280;49334;37.766;-121.890;2023-05-08T02:10:26;99784.84;;;13.81;42.08
58977;BME280;49334;37.766;-121.890;2023-05-08T02:12:59;99784.16;;;13.46;43.28
58977;BME280;49334;37.766;-121.890;2023-05-08T02:15:31;99784.26;;;13.47;42.41
58977;BME280;49334;37.766;-121.890;2023-05-08T02:18:02;99784.72;;;12.78;43.48
58977;BME280;49334;37.766;-121.890;2023-05-08T02:20:33;99784.39;;;12.99;43.11
58977;BME280;49334;37.766;-121.890;2023-05-08T02:23:06;99778.06;;;13.51;42.80
58977;BME280;49334;37.766;-121.890;2023-05-08T02:25:38;99777.09;;;13.97;42.18
58977;BME280;49334;37.766;-121.890;2023-05-08T02:28:08;99780.93;;;13.25;42.90
58977;BME280;49334;37.766;-121.890;2023-05-08T02:30:40;99783.67;;;13.62;42.61
58977;BME280;49334;37.766;-121.890;2023-05-08T02:33:12;99782.33;;;14.52;40.66
58977;BME280;49334;37.766;-121.890;2023-05-08T02:35:45;99788.73;;;13.74;41.79
58977;BME280;49334;37.766;-121.890;2023-05-08T02:38:18;99785.95;;;14.10;41.37
58977;BME280;49334;37.766;-121.890;2023-05-08T02:40:53;99782.94;;;14.69;40.19
58977;BME280;49334;37.766;-121.890;2023-05-08T02:43:24;99778.61;;;14.82;39.59
58977;BME280;49334;37.766;-121.890;2023-05-08T02:46:02;99768.99;;;15.05;39.49
58977;BME280;49334;37.766;-121.890;2023-05-08T02:48:54;99769.00;;;14.75;39.50
58977;BME280;49334;37.766;-121.890;2023-05-08T02:51:28;99771.06;;;14.03;40.96
58977;BME280;49334;37.766;-121.890;2023-05-08T02:54:08;99775.83;;;13.67;41.24
58977;BME280;49334;37.766;-121.890;2023-05-08T02:56:42;99769.91;;;14.08;40.29
58977;BME280;49334;37.766;-121.890;2023-05-08T02:59:19;99764.36;;;13.48;42.06
58977;BME280;49334;37.766;-121.890;2023-05-08T03:01:53;99766.66;;;12.87;43.54
58977;BME280;49334;37.766;-121.890;2023-05-08T03:04:30;99768.89;;;12.32;45.09
58977;BME280;49334;37.766;-121.890;2023-05-08T03:07:01;99770.15;;;13.28;42.67
58977;BME280;49334;37.766;-121.890;2023-05-08T03:09:38;99773.30;;;12.75;43.83
58977;BME280;49334;37.766;-121.890;2023-05-08T03:12:13;99767.25;;;12.67;44.68
58977;BME280;49334;37.766;-121.890;2023-05-08T03:14:48;99771.88;;;12.79;45.05
58977;BME280;49334;37.766;-121.890;2023-05-08T03:17:23;99776.72;;;12.00;46.05
58977;BME280;49334;37.766;-121.890;2023-05-08T03:19:57;99775.82;;;11.79;46.23
58977;BME280;49334;37.766;-121.890;2023-05-08T03:22:28;99770.38;;;12.61;44.86
58977;BME280;49334;37.766;-121.890;2023-05-08T03:25:00;99767.51;;;12.68;43.75
58977;BME280;49334;37.766;-121.890;2023-05-08T03:27:31;99773.07;;;12.56;45.03
58977;BME280;49334;37.766;-121.890;2023-05-08T03:30:03;99777.99;;;11.62;47.48
58977;BME280;49334;37.766;-121.890;2023-05-08T03:32:35;99777.21;;;12.76;45.74
58977;BME280;49334;37.766;-121.890;2023-05-08T03:35:06;99778.72;;;12.14;46.90
58977;BME280;49334;37.766;-121.890;2023-05-08T03:37:37;99782.55;;;11.82;46.57
58977;BME280;49334;37.766;-121.890;2023-05-08T03:40:08;99787.35;;;12.46;46.01
58977;BME280;49334;37.766;-121.890;2023-05-08T03:42:38;99786.50;;;12.07;46.93
58977;BME280;49334;37.766;-121.890;2023-05-08T03:45:10;99793.79;;;12.13;46.72
58977;BME280;49334;37.766;-121.890;2023-05-08T03:47:40;99798.21;;;12.13;46.31
58977;BME280;49334;37.766;-121.890;2023-05-08T03:50:09;99799.84;;;13.48;44.35
58977;BME280;49334;37.766;-121.890;2023-05-08T03:52:38;99805.26;;;12.69;45.46
58977;BME280;49334;37.766;-121.890;2023-05-08T03:55:09;99809.56;;;12.62;45.08
58977;BME280;49334;37.766;-121.890;2023-05-08T03:57:43;99806.85;;;11.85;46.72
58977;BME280;49334;37.766;-121.890;2023-05-08T04:00:20;99805.83;;;12.48;46.16
58977;BME280;49334;37.766;-121.890;2023-05-08T04:02:59;99804.86;;;11.47;47.14
58977;BME280;49334;37.766;-121.890;2023-05-08T04:05:37;99797.49;;;12.07;47.23
58977;BME280;49334;37.766;-121.890;2023-05-08T04:08:14;99799.54;;;13.01;45.49
58977;BME280;49334;37.766;-121.890;2023-05-08T04:10:48;99799.30;;;13.17;44.79
58977;BME280;49334;37.766;-121.890;2023-05-08T04:13:23;99802.59;;;13.24;44.07
58977;BME280;49334;37.766;-121.890;2023-05-08T04:15:58;99803.16;;;12.62;45.88
58977;BME280;49334;37.766;-121.890;2023-05-08T04:18:35;99802.81;;;12.82;45.31
58977;BME280;49334;37.766;-121.890;2023-05-08T04:21:09;99806.68;;;13.23;44.59
58977;BME280;49334;37.766;-121.890;2023-05-08T04:23:41;99807.52;;;12.11;46.25
58977;BME280;49334;37.766;-121.890;2023-05-08T04:26:13;99807.06;;;13.02;44.15
58977;BME280;49334;37.766;-121.890;2023-05-08T04:28:44;99813.13;;;12.27;45.57
58977;BME280;49334;37.766;-121.890;2023-05-08T04:31:15;99817.93;;;11.94;46.83
58977;BME280;49334;37.766;-121.890;2023-05-08T04:33:45;99823.45;;;12.79;46.61
58977;BME280;49334;37.766;-121.890;2023-05-08T04:36:15;99830.59;;;11.53;48.49
58977;BME280;49334;37.766;-121.890;2023-05-08T04:38:44;99825.34;;;12.46;47.27
58977;BME280;49334;37.766;-121.890;2023-05-08T04:41:14;99827.68;;;12.48;47.30
58977;BME280;49334;37.766;-121.890;2023-05-08T04:43:43;99823.44;;;12.16;48.24
58977;BME280;49334;37.766;-121.890;2023-05-08T04:46:17;99824.61;;;12.35;47.85
58977;BME280;49334;37.766;-121.890;2023-05-08T04:48:46;99827.74;;;10.97;50.08
58977;BME280;49334;37.766;-121.890;2023-05-08T04:51:15;99825.05;;;12.02;48.74
58977;BME280;49334;37.766;-121.890;2023-05-08T04:53:44;99830.03;;;11.92;49.11
58977;BME280;49334;37.766;-121.890;2023-05-08T04:56:13;99828.72;;;11.94;48.88
58977;BME280;49334;37.766;-121.890;2023-05-08T04:58:42;99828.46;;;11.27;50.60
58977;BME280;49334;37.766;-121.890;2023-05-08T05:01:11;99822.20;;;11.80;49.51
58977;BME280;49334;37.766;-121.890;2023-05-08T05:03:40;99822.08;;;12.30;48.79
58977;BME280;49334;37.766;-121.890;2023-05-08T05:06:09;99820.74;;;11.96;48.64
58977;BME280;49334;37.766;-121.890;2023-05-08T05:08:38;99820.01;;;11.00;49.91
58977;BME280;49334;37.766;-121.890;2023-05-08T05:11:09;99820.52;;;11.04;50.53
58977;BME280;49334;37.766;-121.890;2023-05-08T05:13:38;99820.58;;;11.13;49.81
58977;BME280;49334;37.766;-121.890;2023-05-08T05:16:07;99817.40;;;12.35;47.92
58977;BME280;49334;37.766;-121.890;2023-05-08T05:18:36;99810.09;;;13.60;44.72
58977;BME280;49334;37.766;-121.890;2023-05-08T05:21:06;99815.30;;;11.96;47.66
58977;BME280;49334;37.766;-121.890;2023-05-08T05:23:35;99807.92;;;13.66;45.15
58977;BME280;49334;37.766;-121.890;2023-05-08T05:26:05;99810.52;;;10.71;50.08
58977;BME280;49334;37.766;-121.890;2023-05-08T05:28:40;99811.18;;;12.16;48.23
58977;BME280;49334;37.766;-121.890;2023-05-08T05:31:09;99807.67;;;14.00;44.27
58977;BME280;49334;37.766;-121.890;2023-05-08T05:33:38;99807.08;;;13.73;44.49
58977;BME280;49334;37.766;-121.890;2023-05-08T05:36:07;99805.71;;;12.42;47.60
58977;BME280;49334;37.766;-121.890;2023-05-08T05:38:36;99805.44;;;13.20;46.18
58977;BME280;49334;37.766;-121.890;2023-05-08T05:41:06;99804.89;;;12.71;47.18
58977;BME280;49334;37.766;-121.890;2023-05-08T05:43:35;99801.02;;;12.51;47.34
58977;BME280;49334;37.766;-121.890;2023-05-08T05:46:05;99796.50;;;11.92;49.39
58977;BME280;49334;37.766;-121.890;2023-05-08T05:48:34;99792.06;;;11.11;51.44
58977;BME280;49334;37.766;-121.890;2023-05-08T05:51:03;99794.74;;;11.23;51.65
58977;BME280;49334;37.766;-121.890;2023-05-08T05:53:32;99795.89;;;10.53;53.28
58977;BME280;49334;37.766;-121.890;2023-05-08T05:56:01;99789.41;;;10.92;52.37
58977;BME280;49334;37.766;-121.890;2023-05-08T05:58:30;99788.50;;;11.46;50.63
58977;BME280;49334;37.766;-121.890;2023-05-08T06:00:59;99789.57;;;10.71;52.05
58977;BME280;49334;37.766;-121.890;2023-05-08T06:03:28;99788.93;;;10.88;52.86
58977;BME280;49334;37.766;-121.890;2023-05-08T06:05:57;99790.40;;;10.45;53.84
58977;BME280;49334;37.766;-121.890;2023-05-08T06:08:28;99791.80;;;10.49;54.07
58977;BME280;49334;37.766;-121.890;2023-05-08T06:10:57;99791.29;;;10.66;53.44
58977;BME280;49334;37.766;-121.890;2023-05-08T06:13:25;99792.92;;;10.55;53.85
58977;BME280;49334;37.766;-121.890;2023-05-08T06:15:55;99789.90;;;10.89;53.31
58977;BME280;49334;37.766;-121.890;2023-05-08T06:18:24;99790.58;;;10.81;53.34
58977;BME280;49334;37.766;-121.890;2023-05-08T06:20:57;99793.62;;;12.31;49.35
58977;BME280;49334;37.766;-121.890;2023-05-08T06:23:26;99788.05;;;11.67;51.49
58977;BME280;49334;37.766;-121.890;2023-05-08T06:25:54;99792.49;;;11.24;52.57
58977;BME280;49334;37.766;-121.890;2023-05-08T06:28:24;99789.18;;;10.60;54.14
58977;BME280;49334;37.766;-121.890;2023-05-08T06:30:52;99786.41;;;10.85;53.55
58977;BME280;49334;37.766;-121.890;2023-05-08T06:33:21;99785.29;;;10.34;54.90
58977;BME280;49334;37.766;-121.890;2023-05-08T06:35:51;99786.83;;;9.47;57.57
58977;BME280;49334;37.766;-121.890;2023-05-08T06:38:21;99786.89;;;8.86;59.30
58977;BME280;49334;37.766;-121.890;2023-05-08T06:40:50;99787.41;;;10.05;56.95
58977;BME280;49334;37.766;-121.890;2023-05-08T06:43:19;99783.16;;;9.96;56.98
58977;BME280;49334;37.766;-121.890;2023-05-08T06:45:48;99785.30;;;9.51;57.08
58977;BME280;49334;37.766;-121.890;2023-05-08T06:48:17;99782.95;;;9.70;56.56
58977;BME280;49334;37.766;-121.890;2023-05-08T06:50:46;99776.83;;;10.66;54.76
58977;BME280;49334;37.766;-121.890;2023-05-08T06:53:15;99776.09;;;11.16;53.01
58977;BME280;49334;37.766;-121.890;2023-05-08T06:55:44;99780.31;;;11.30;52.74
58977;BME280;49334;37.766;-121.890;2023-05-08T06:58:14;99786.42;;;9.67;56.44
58977;BME280;49334;37.766;-121.890;2023-05-08T07:00:43;99787.88;;;9.76;57.11
58977;BME280;49334;37.766;-121.890;2023-05-08T07:03:12;99790.61;;;9.62;57.39
58977;BME280;49334;37.766;-121.890;2023-05-08T07:05:42;99792.73;;;9.71;56.89
58977;BME280;49334;37.766;-121.890;2023-05-08T07:08:10;99794.37;;;11.11;53.80
58977;BME280;49334;37.766;-121.890;2023-05-08T07:10:39;99803.57;;;10.60;54.17
58977;BME280;49334;37.766;-121.890;2023-05-08T07:13:08;99796.50;;;11.98;50.87
58977;BME280;49334;37.766;-121.890;2023-05-08T07:15:37;99806.86;;;11.26;52.12
58977;BME280;49334;37.766;-121.890;2023-05-08T07:18:06;99807.97;;;10.54;54.37
58977;BME280;49334;37.766;-121.890;2023-05-08T07:20:35;99805.98;;;10.02;55.21
58977;BME280;49334;37.766;-121.890;2023-05-08T07:23:06;99807.35;;;11.02;52.86
58977;BME280;49334;37.766;-121.890;2023-05-08T07:25:35;99809.81;;;10.02;55.17
58977;BME280;49334;37.766;-121.890;2023-05-08T07:28:05;99804.77;;;12.04;50.96
58977;BME280;49334;37.766;-121.890;2023-05-08T07:30:34;99807.85;;;9.74;54.43
58977;BME280;49334;37.766;-121.890;2023-05-08T07:33:04;99803.55;;;11.45;52.11
58977;BME280;49334;37.766;-121.890;2023-05-08T07:35:33;99801.25;;;11.83;50.55
58977;BME280;49334;37.766;-121.890;2023-05-08T07:38:01;99804.97;;;11.69;51.03
58977;BME280;49334;37.766;-121.890;2023-05-08T07:40:31;99805.77;;;10.44;53.03
58977;BME280;49334;37.766;-121.890;2023-05-08T07:43:01;99800.35;;;11.31;52.02
58977;BME280;49334;37.766;-121.890;2023-05-08T07:45:29;99794.98;;;11.70;50.49
58977;BME280;49334;37.766;-121.890;2023-05-08T07:47:58;99792.93;;;11.94;49.78
58977;BME280;49334;37.766;-121.890;2023-05-08T07:50:27;99792.24;;;12.65;49.47
58977;BME280;49334;37.766;-121.890;2023-05-08T07:52:56;99796.08;;;12.14;50.00
58977;BME280;49334;37.766;-121.890;2023-05-08T07:55:25;99795.49;;;11.18;49.55
58977;BME280;49334;37.766;-121.890;2023-05-08T07:57:54;99801.28;;;10.11;52.83
58977;BME280;49334;37.766;-121.890;2023-05-08T08:00:23;99797.41;;;12.58;48.01
58977;BME280;49334;37.766;-121.890;2023-05-08T08:02:52;99798.33;;;11.45;49.79
58977;BME280;49334;37.766;-121.890;2023-05-08T08:05:21;99795.85;;;12.56;48.28
58977;BME280;49334;37.766;-121.890;2023-05-08T08:07:51;99791.72;;;12.14;48.73
58977;BME280;49334;37.766;-121.890;2023-05-08T08:10:20;99784.70;;;11.61;49.96
58977;BME280;49334;37.766;-121.890;2023-05-08T08:12:49;99783.58;;;13.77;45.48
58977;BME280;49334;37.766;-121.890;2023-05-08T08:15:18;99781.88;;;13.45;45.16
58977;BME280;49334;37.766;-121.890;2023-05-08T08:17:48;99782.15;;;10.89;49.26
58977;BME280;49334;37.766;-121.890;2023-05-08T08:20:18;99784.85;;;12.57;47.25
58977;BME280;49334;37.766;-121.890;2023-05-08T08:22:46;99792.67;;;11.26;48.93
58977;BME280;49334;37.766;-121.890;2023-05-08T08:25:22;99788.20;;;11.98;47.88
58977;BME280;49334;37.766;-121.890;2023-05-08T08:27:51;99785.90;;;11.67;47.87
58977;BME280;49334;37.766;-121.890;2023-05-08T08:30:20;99785.36;;;11.64;48.43
58977;BME280;49334;37.766;-121.890;2023-05-08T08:32:50;99782.50;;;12.97;45.82
58977;BME280;49334;37.766;-121.890;2023-05-08T08:35:19;99779.34;;;13.23;44.68
58977;BME280;49334;37.766;-121.890;2023-05-08T08:37:49;99781.46;;;12.68;45.28
58977;BME280;49334;37.766;-121.890;2023-05-08T08:40:18;99779.60;;;12.14;45.81
58977;BME280;49334;37.766;-121.890;2023-05-08T08:42:47;99781.83;;;9.96;51.27
58977;BME280;49334;37.766;-121.890;2023-05-08T08:45:16;99781.97;;;10.40;51.85
58977;BME280;49334;37.766;-121.890;2023-05-08T08:47:45;99772.98;;;11.35;49.86
58977;BME280;49334;37.766;-121.890;2023-05-08T08:50:18;99770.98;;;13.53;45.27
58977;BME280;49334;37.766;-121.890;2023-05-08T08:52:54;99767.07;;;12.45;46.80
58977;BME280;49334;37.766;-121.890;2023-05-08T08:55:26;99773.25;;;11.87;48.05
58977;BME280;49334;37.766;-121.890;2023-05-08T08:58:16;99775.99;;;11.97;46.98
58977;BME280;49334;37.766;-121.890;2023-05-08T09:00:50;99769.49;;;10.81;50.25
58977;BME280;49334;37.766;-121.890;2023-05-08T09:03:18;99763.55;;;10.49;50.34
58977;BME280;49334;37.766;-121.890;2023-05-08T09:05:48;99760.16;;;10.69;50.09
58977;BME280;49334;37.766;-121.890;2023-05-08T09:08:18;99755.71;;;11.24;48.78
58977;BME280;49334;37.766;-121.890;2023-05-08T09:10:47;99751.60;;;13.21;44.85
58977;BME280;49334;37.766;-121.890;2023-05-08T09:13:16;99752.20;;;12.15;46.97
58977;BME280;49334;37.766;-121.890;2023-05-08T09:15:46;99749.13;;;13.01;45.23
58977;BME280;49334;37.766;-121.890;2023-05-08T09:18:15;99756.32;;;9.03;52.15
58977;BME280;49334;37.766;-121.890;2023-05-08T09:20:44;99750.50;;;10.64;50.76
58977;BME280;49334;37.766;-121.890;2023-05-08T09:23:14;99750.55;;;9.68;52.34
58977;BME280;49334;37.766;-121.890;2023-05-08T09:25:46;99740.79;;;11.82;48.70
58977;BME280;49334;37.766;-121.890;2023-05-08T09:28:16;99755.53;;;9.34;52.81
58977;BME280;49334;37.766;-121.890;2023-05-08T09:30:51;99748.75;;;9.33;52.40
58977;BME280;49334;37.766;-121.890;2023-05-08T09:33:21;99746.99;;;8.70;54.97
58977;BME280;49334;37.766;-121.890;2023-05-08T09:35:52;99750.06;;;10.28;51.29
58977;BME280;49334;37.766;-121.890;2023-05-08T09:38:34;99752.64;;;10.72;51.36
58977;BME280;49334;37.766;-121.890;2023-05-08T09:41:09;99748.34;;;11.87;48.34
58977;BME280;49334;37.766;-121.890;2023-05-08T09:43:38;99754.02;;;9.58;53.29
58977;BME280;49334;37.766;-121.890;2023-05-08T09:46:26;99754.26;;;10.18;50.68
58977;BME280;49334;37.766;-121.890;2023-05-08T09:48:56;99757.54;;;8.71;53.16
58977;BME280;49334;37.766;-121.890;2023-05-08T09:51:25;99752.38;;;8.24;54.69
58977;BME280;49334;37.766;-121.890;2023-05-08T09:53:55;99750.28;;;11.66;47.91
58977;BME280;49334;37.766;-121.890;2023-05-08T09:56:33;99749.55;;;11.57;47.99
58977;BME280;49334;37.766;-121.890;2023-05-08T10:01:49;99753.46;;;9.82;52.90
58977;BME280;49334;37.766;-121.890;2023-05-08T10:04:18;99757.96;;;9.48;52.69
58977;BME280;49334;37.766;-121.890;2023-05-08T10:06:58;99759.07;;;8.23;54.16
58977;BME280;49334;37.766;-121.890;2023-05-08T10:09:27;99756.43;;;8.14;54.81
58977;BME280;49334;37.766;-121.890;2023-05-08T10:11:55;99762.65;;;5.60;65.09
58977;BME280;49334;37.766;-121.890;2023-05-08T10:14:25;99759.56;;;8.61;58.36
58977;BME280;49334;37.766;-121.890;2023-05-08T10:16:54;99759.76;;;7.52;59.19
58977;BME280;49334;37.766;-121.890;2023-05-08T10:19:25;99760.86;;;10.39;52.78
58977;BME280;49334;37.766;-121.890;2023-05-08T10:21:55;99754.47;;;11.10;49.42
58977;BME280;49334;37.766;-121.890;2023-05-08T10:24:29;99762.09;;;9.56;51.35
58977;BME280;49334;37.766;-121.890;2023-05-08T10:27:08;99766.73;;;9.42;51.85
58977;BME280;49334;37.766;-121.890;2023-05-08T10:29:43;99764.41;;;9.36;52.43
58977;BME280;49334;37.766;-121.890;2023-05-08T10:32:19;99763.34;;;8.65;55.00
58977;BME280;49334;37.766;-121.890;2023-05-08T10:34:51;99758.82;;;8.83;56.02
58977;BME280;49334;37.766;-121.890;2023-05-08T10:37:20;99759.24;;;8.98;54.02
58977;BME280;49334;37.766;-121.890;2023-05-08T10:39:50;99749.89;;;8.39;55.75
58977;BME280;49334;37.766;-121.890;2023-05-08T10:42:20;99746.12;;;10.26;52.61
58977;BME280;49334;37.766;-121.890;2023-05-08T10:44:49;99745.93;;;8.94;55.98
58977;BME280;49334;37.766;-121.890;2023-05-08T10:47:21;99739.45;;;11.65;48.94
58977;BME280;49334;37.766;-121.890;2023-05-08T10:50:03;99746.91;;;8.83;55.89
58977;BME280;49334;37.766;-121.890;2023-05-08T10:52:38;99740.37;;;10.43;53.86
58977;BME280;49334;37.766;-121.890;2023-05-08T10:55:19;99740.48;;;9.78;54.14
58977;BME280;49334;37.766;-121.890;2023-05-08T10:58:08;99734.66;;;10.76;51.08
58977;BME280;49334;37.766;-121.890;2023-05-08T11:01:12;99739.64;;;9.87;51.83
58977;BME280;49334;37.766;-121.890;2023-05-08T11:03:44;99750.57;;;8.93;55.46
58977;BME280;49334;37.766;-121.890;2023-05-08T11:06:15;99748.63;;;10.07;51.51
58977;BME280;49334;37.766;-121.890;2023-05-08T11:08:48;99749.03;;;11.13;50.41
58977;BME280;49334;37.766;-121.890;2023-05-08T11:11:25;99759.13;;;8.78;55.11
58977;BME280;49334;37.766;-121.890;2023-05-08T11:14:08;99754.35;;;10.45;50.05
58977;BME280;49334;37.766;-121.890;2023-05-08T11:17:10;99753.90;;;11.71;48.82
58977;BME280;49334;37.766;-121.890;2023-05-08T11:19:54;99755.51;;;10.90;48.75
58977;BME280;49334;37.766;-121.890;2023-05-08T11:22:26;99757.83;;;10.02;50.29
58977;BME280;49334;37.766;-121.890;2023-05-08T11:25:00;99762.88;;;9.15;52.81
58977;BME280;49334;37.766;-121.890;2023-05-08T11:28:37;99763.62;;;10.59;49.98
58977;BME280;49334;37.766;-121.890;2023-05-08T11:31:07;99760.44;;;12.15;47.22
58977;BME280;49334;37.766;-121.890;2023-05-08T11:33:37;99760.34;;;11.99;47.09
58977;BME280;49334;37.766;-121.890;2023-05-08T11:36:13;99768.72;;;10.32;49.97
58977;BME280;49334;37.766;-121.890;2023-05-08T11:38:43;99768.65;;;12.18;47.30
58977;BME280;49334;37.766;-121.890;2023-05-08T11:41:20;99775.87;;;9.35;53.28
58977;BME280;49334;37.766;-121.890;2023-05-08T11:44:15;99766.98;;;10.52;50.94
58977;BME280;49334;37.766;-121.890;2023-05-08T11:46:49;99759.36;;;10.97;48.61
58977;BME280;49334;37.766;-121.890;2023-05-08T11:49:20;99760.00;;;9.71;51.66
58977;BME280;49334;37.766;-121.890;2023-05-08T11:51:51;99757.08;;;11.95;47.38
58977;BME280;49334;37.766;-121.890;2023-05-08T11:54:20;99770.30;;;9.92;49.69
58977;BME280;49334;37.766;-121.890;2023-05-08T11:56:51;99772.36;;;9.05;53.58
58977;BME280;49334;37.766;-121.890;2023-05-08T11:59:21;99770.78;;;7.79;56.94
58977;BME280;49334;37.766;-121.890;2023-05-08T12:01:51;99770.93;;;9.56;54.28
58977;BME280;49334;37.766;-121.890;2023-05-08T12:04:19;99769.14;;;9.30;53.84
58977;BME280;49334;37.766;-121.890;2023-05-08T12:06:49;99765.65;;;9.47;52.93
58977;BME280;49334;37.766;-121.890;2023-05-08T12:09:18;99757.48;;;9.74;55.09
58977;BME280;49334;37.766;-121.890;2023-05-08T12:11:47;99757.68;;;9.72;54.14
58977;BME280;49334;37.766;-121.890;2023-05-08T12:14:24;99757.45;;;11.85;49.07
58977;BME280;49334;37.766;-121.890;2023-05-08T12:16:53;99763.98;;;10.02;52.83
58977;BME280;49334;37.766;-121.890;2023-05-08T12:19:21;99763.93;;;8.22;57.06
58977;BME280;49334;37.766;-121.890;2023-05-08T12:21:51;99762.22;;;10.73;51.95
58977;BME280;49334;37.766;-121.890;2023-05-08T12:24:20;99760.60;;;10.18;53.33
58977;BME280;49334;37.766;-121.890;2023-05-08T12:26:51;99757.33;;;9.29;55.67
58977;BME280;49334;37.766;-121.890;2023-05-08T12:29:44;99754.04;;;11.07;52.52
58977;BME280;49334;37.766;-121.890;2023-05-08T12:32:14;99754.60;;;8.31;57.09
58977;BME280;49334;37.766;-121.890;2023-05-08T12:34:43;99761.66;;;6.73;62.63
58977;BME280;49334;37.766;-121.890;2023-05-08T12:37:23;99753.14;;;10.20;55.92
58977;BME280;49334;37.766;-121.890;2023-05-08T12:39:54;99753.17;;;9.03;58.15
58977;BME280;49334;37.766;-121.890;2023-05-08T12:42:23;99751.34;;;8.31;58.61
58977;BME280;49334;37.766;-121.890;2023-05-08T12:45:15;99742.98;;;10.82;53.96
58977;BME280;49334;37.766;-121.890;2023-05-08T12:47:46;99749.05;;;9.17;58.04
58977;BME280;49334;37.766;-121.890;2023-05-08T12:50:16;99745.30;;;9.28;56.64
58977;BME280;49334;37.766;-121.890;2023-05-08T12:52:45;99745.98;;;8.30;59.55
58977;BME280;49334;37.766;-121.890;2023-05-08T12:55:24;99753.89;;;8.81;58.93
58977;BME280;49334;37.766;-121.890;2023-05-08T12:58:05;99751.60;;;8.54;59.30
58977;BME280;49334;37.766;-121.890;2023-05-08T13:00:37;99760.65;;;10.59;54.30
58977;BME280;49334;37.766;-121.890;2023-05-08T13:03:09;99769.40;;;9.44;56.03